sensor_id;sensor_type;location;lat;lon;timestamp;pressure;altitude;pressure_sealevel;temperature;humidity
16793;BME280;8513;42.662;23.350;2024-01-30T00:01:09;96819.41;;;1.89;48.39
16793;BME280;8513;42.662;23.350;2024-01-30T00:03:35;96826.50;;;1.84;48.66
16793;BME280;8513;42.662;23.350;2024-01-30T00:06:00;96825.25;;;1.70;48.97
16793;BME280;8513;42.662;23.350;2024-01-30T00:08:28;96826.50;;;1.84;48.21
16793;BME280;8513;42.662;23.350;2024-01-30T00:10:53;96829.25;;;1.79;48.79
16793;BME280;8513;42.662;23.350;2024-01-30T00:13:19;96828.75;;;1.69;48.46
16793;BME280;8513;42.662;23.350;2024-01-30T00:15:45;96836.47;;;1.71;48.60
16793;BME280;8513;42.662;23.350;2024-01-30T00:18:10;96831.56;;;1.63;48.88
16793;BME280;8513;42.662;23.350;2024-01-30T00:20:36;96831.44;;;1.66;48.82
16793;BME280;8513;42.662;23.350;2024-01-30T00:23:01;96833.34;;;1.61;49.12
16793;BME280;8513;42.662;23.350;2024-01-30T00:25:27;96833.59;;;1.53;49.26
16793;BME280;8513;42.662;23.350;2024-01-30T00:27:52;96838.53;;;1.61;49.19
16793;BME280;8513;42.662;23.350;2024-01-30T00:30:18;96841.97;;;1.62;49.54
16793;BME280;8513;42.662;23.350;2024-01-30T00:32:44;96840.69;;;1.48;49.43
16793;BME280;8513;42.662;23.350;2024-01-30T00:35:10;96845.25;;;1.42;49.80
16793;BME280;8513;42.662;23.350;2024-01-30T00:37:36;96839.16;;;1.43;49.52
16793;BME280;8513;42.662;23.350;2024-01-30T00:40:01;96843.50;;;1.42;49.65
16793;BME280;8513;42.662;23.350;2024-01-30T00:42:27;96838.13;;;1.47;49.06
16793;BME280;8513;42.662;23.350;2024-01-30T00:44:52;96841.38;;;1.53;49.24
16793;BME280;8513;42.662;23.350;2024-01-30T00:47:18;96832.91;;;1.48;49.26
16793;BME280;8513;42.662;23.350;2024-01-30T00:49:43;96837.00;;;1.56;49.28
16793;BME280;8513;42.662;23.350;2024-01-30T00:52:09;96833.88;;;1.46;49.59
16793;BME280;8513;42.662;23.350;2024-01-30T00:54:34;96838.72;;;1.55;49.30
16793;BME280;8513;42.662;23.350;2024-01-30T00:57:00;96824.16;;;1.52;49.55
16793;BME280;8513;42.662;23.350;2024-01-30T00:59:25;96835.19;;;1.58;49.66
16793;BME280;8513;42.662;23.350;2024-01-30T01:01:50;96838.78;;;1.53;49.17
16793;BME280;8513;42.662;23.350;2024-01-30T01:04:16;96824.19;;;1.51;48.90
16793;BME280;8513;42.662;23.350;2024-01-30T01:06:43;96834.97;;;1.39;49.23
16793;BME280;8513;42.662;23.350;2024-01-30T01:09:11;96841.25;;;1.58;49.04
16793;BME280;8513;42.662;23.350;2024-01-30T01:11:36;96822.31;;;1.54;48.94
16793;BME280;8513;42.662;23.350;2024-01-30T01:14:03;96823.84;;;1.35;49.90
16793;BME280;8513;42.662;23.350;2024-01-30T01:16:29;96837.50;;;1.15;51.07
16793;BME280;8513;42.662;23.350;2024-01-30T01:18:54;96834.22;;;1.35;50.52
16793;BME280;8513;42.662;23.350;2024-01-30T01:21:20;96826.34;;;1.38;50.41
16793;BME280;8513;42.662;23.350;2024-01-30T01:23:45;96833.31;;;1.36;50.84
16793;BME280;8513;42.662;23.350;2024-01-30T01:26:11;96840.25;;;1.09;51.83
16793;BME280;8513;42.662;23.350;2024-01-30T01:28:36;96839.06;;;1.19;51.64
16793;BME280;8513;42.662;23.350;2024-01-30T01:31:01;96834.72;;;1.20;51.29
16793;BME280;8513;42.662;23.350;2024-01-30T01:33:33;96838.25;;;1.17;51.36
16793;BME280;8513;42.662;23.350;2024-01-30T01:36:00;96843.66;;;1.11;51.49
16793;BME280;8513;42.662;23.350;2024-01-30T01:38:27;96834.03;;;1.15;51.61
16793;BME280;8513;42.662;23.350;2024-01-30T01:40:53;96838.31;;;1.16;51.84
16793;BME280;8513;42.662;23.350;2024-01-30T01:43:18;96840.06;;;0.88;52.23
16793;BME280;8513;42.662;23.350;2024-01-30T01:45:45;96835.25;;;1.04;51.93
16793;BME280;8513;42.662;23.350;2024-01-30T01:48:11;96840.81;;;0.92;51.73
16793;BME280;8513;42.662;23.350;2024-01-30T01:50:38;96839.72;;;0.99;51.53
16793;BME280;8513;42.662;23.350;2024-01-30T01:53:04;96838.91;;;0.97;51.64
16793;BME280;8513;42.662;23.350;2024-01-30T01:55:33;96838.06;;;0.97;51.57
16793;BME280;8513;42.662;23.350;2024-01-30T01:58:00;96838.41;;;0.86;51.47
16793;BME280;8513;42.662;23.350;2024-01-30T02:00:26;96848.91;;;0.81;52.38
16793;BME280;8513;42.662;23.350;2024-01-30T02:02:54;96837.25;;;0.66;52.29
16793;BME280;8513;42.662;23.350;2024-01-30T02:05:21;96839.00;;;0.66;52.37
16793;BME280;8513;42.662;23.350;2024-01-30T02:07:46;96846.53;;;0.74;52.26
16793;BME280;8513;42.662;23.350;2024-01-30T02:10:12;96845.56;;;0.78;51.82
16793;BME280;8513;42.662;23.350;2024-01-30T02:12:38;96845.03;;;0.66;51.41
16793;BME280;8513;42.662;23.350;2024-01-30T02:15:04;96844.81;;;0.74;51.98
16793;BME280;8513;42.662;23.350;2024-01-30T02:17:30;96844.19;;;0.94;51.88
16793;BME280;8513;42.662;23.350;2024-01-30T02:19:56;96844.44;;;0.86;52.40
16793;BME280;8513;42.662;23.350;2024-01-30T02:22:22;96847.06;;;0.85;51.61
16793;BME280;8513;42.662;23.350;2024-01-30T02:24:47;96850.31;;;0.92;51.33
16793;BME280;8513;42.662;23.350;2024-01-30T02:27:13;96838.19;;;0.94;50.91
16793;BME280;8513;42.662;23.350;2024-01-30T02:29:38;96836.88;;;0.80;51.82
16793;BME280;8513;42.662;23.350;2024-01-30T02:32:04;96839.88;;;0.93;51.60
16793;BME280;8513;42.662;23.350;2024-01-30T02:34:30;96847.91;;;1.12;50.69
16793;BME280;8513;42.662;23.350;2024-01-30T02:36:56;96840.50;;;1.01;50.77
16793;BME280;8513;42.662;23.350;2024-01-30T02:39:21;96846.25;;;1.11;50.69
16793;BME280;8513;42.662;23.350;2024-01-30T02:41:47;96838.22;;;1.19;50.75
16793;BME280;8513;42.662;23.350;2024-01-30T02:44:12;96840.75;;;1.20;50.88
16793;BME280;8513;42.662;23.350;2024-01-30T02:46:37;96843.16;;;1.26;50.42
16793;BME280;8513;42.662;23.350;2024-01-30T02:49:03;96849.22;;;1.25;49.96
16793;BME280;8513;42.662;23.350;2024-01-30T02:51:28;96843.44;;;1.17;49.57
16793;BME280;8513;42.662;23.350;2024-01-30T02:53:54;96842.25;;;1.27;49.52
16793;BME280;8513;42.662;23.350;2024-01-30T02:56:19;96843.50;;;1.16;49.68
16793;BME280;8513;42.662;23.350;2024-01-30T02:58:44;96840.47;;;1.29;49.45
16793;BME280;8513;42.662;23.350;2024-01-30T03:01:10;96845.41;;;1.10;49.95
16793;BME280;8513;42.662;23.350;2024-01-30T03:03:35;96837.19;;;1.24;49.48
16793;BME280;8513;42.662;23.350;2024-01-30T03:06:01;96832.69;;;1.29;49.29
16793;BME280;8513;42.662;23.350;2024-01-30T03:08:27;96833.28;;;1.38;49.15
16793;BME280;8513;42.662;23.350;2024-01-30T03:10:52;96838.31;;;1.42;48.97
16793;BME280;8513;42.662;23.350;2024-01-30T03:13:18;96833.06;;;1.44;48.76
16793;BME280;8513;42.662;23.350;2024-01-30T03:15:43;96837.25;;;1.48;48.52
16793;BME280;8513;42.662;23.350;2024-01-30T03:18:09;96835.72;;;1.42;48.77
16793;BME280;8513;42.662;23.350;2024-01-30T03:20:34;96835.47;;;1.50;48.19
16793;BME280;8513;42.662;23.350;2024-01-30T03:23:00;96830.44;;;1.45;48.31
16793;BME280;8513;42.662;23.350;2024-01-30T03:25:25;96824.31;;;1.48;48.44
16793;BME280;8513;42.662;23.350;2024-01-30T03:27:51;96831.41;;;1.41;48.28
16793;BME280;8513;42.662;23.350;2024-01-30T03:30:16;96828.69;;;1.19;48.71
16793;BME280;8513;42.662;23.350;2024-01-30T03:32:42;96835.66;;;1.17;48.94
16793;BME280;8513;42.662;23.350;2024-01-30T03:35:08;96829.38;;;1.26;48.87
16793;BME280;8513;42.662;23.350;2024-01-30T03:37:34;96825.13;;;1.23;49.33
16793;BME280;8513;42.662;23.350;2024-01-30T03:39:59;96827.34;;;1.34;48.67
16793;BME280;8513;42.662;23.350;2024-01-30T03:42:25;96832.34;;;1.40;48.96
16793;BME280;8513;42.662;23.350;2024-01-30T03:44:50;96815.00;;;1.42;49.17
16793;BME280;8513;42.662;23.350;2024-01-30T03:47:20;96822.91;;;1.38;48.90
16793;BME280;8513;42.662;23.350;2024-01-30T03:49:46;96822.81;;;1.41;48.84
16793;BME280;8513;42.662;23.350;2024-01-30T03:52:12;96816.94;;;1.09;49.78
16793;BME280;8513;42.662;23.350;2024-01-30T03:54:37;96823.16;;;1.03;49.72
16793;BME280;8513;42.662;23.350;2024-01-30T03:57:03;96808.78;;;0.95;49.76
16793;BME280;8513;42.662;23.350;2024-01-30T03:59:28;96814.91;;;0.92;50.23
16793;BME280;8513;42.662;23.350;2024-01-30T04:01:54;96816.34;;;1.01;50.19
16793;BME280;8513;42.662;23.350;2024-01-30T04:04:20;96808.97;;;0.88;50.60
16793;BME280;8513;42.662;23.350;2024-01-30T04:06:45;96822.44;;;1.00;49.95
16793;BME280;8513;42.662;23.350;2024-01-30T04:09:12;96811.03;;;1.05;50.06
16793;BME280;8513;42.662;23.350;2024-01-30T04:11:38;96813.97;;;1.21;49.63
16793;BME280;8513;42.662;23.350;2024-01-30T04:14:04;96804.41;;;1.23;49.48
16793;BME280;8513;42.662;23.350;2024-01-30T04:16:29;96810.78;;;1.13;49.42
16793;BME280;8513;42.662;23.350;2024-01-30T04:18:55;96817.59;;;1.16;49.07
16793;BME280;8513;42.662;23.350;2024-01-30T04:21:21;96812.88;;;1.02;49.50
16793;BME280;8513;42.662;23.350;2024-01-30T04:23:47;96816.41;;;0.99;49.95
16793;BME280;8513;42.662;23.350;2024-01-30T04:26:13;96813.81;;;0.99;49.71
16793;BME280;8513;42.662;23.350;2024-01-30T04:28:41;96809.34;;;1.04;49.67
16793;BME280;8513;42.662;23.350;2024-01-30T04:31:06;96820.00;;;1.20;49.51
16793;BME280;8513;42.662;23.350;2024-01-30T04:33:32;96828.69;;;1.19;49.72
16793;BME280;8513;42.662;23.350;2024-01-30T04:35:57;96825.53;;;1.36;49.54
16793;BME280;8513;42.662;23.350;2024-01-30T04:38:23;96830.66;;;1.39;48.85
16793;BME280;8513;42.662;23.350;2024-01-30T04:40:48;96818.00;;;1.03;49.14
16793;BME280;8513;42.662;23.350;2024-01-30T04:43:14;96824.44;;;1.18;48.82
16793;BME280;8513;42.662;23.350;2024-01-30T04:45:41;96826.81;;;1.24;48.88
16793;BME280;8513;42.662;23.350;2024-01-30T04:48:06;96834.13;;;1.12;49.25
16793;BME280;8513;42.662;23.350;2024-01-30T04:50:32;96831.28;;;1.19;48.75
16793;BME280;8513;42.662;23.350;2024-01-30T04:52:57;96836.44;;;1.21;48.61
16793;BME280;8513;42.662;23.350;2024-01-30T04:55:23;96835.75;;;1.16;48.81
16793;BME280;8513;42.662;23.350;2024-01-30T04:57:48;96840.75;;;1.20;48.83
16793;BME280;8513;42.662;23.350;2024-01-30T05:00:13;96840.47;;;1.03;48.76
16793;BME280;8513;42.662;23.350;2024-01-30T05:02:39;96840.44;;;1.04;49.29
16793;BME280;8513;42.662;23.350;2024-01-30T05:05:05;96857.19;;;0.93;49.61
16793;BME280;8513;42.662;23.350;2024-01-30T05:07:30;96853.38;;;0.76;50.04
16793;BME280;8513;42.662;23.350;2024-01-30T05:09:55;96850.03;;;0.73;49.92
16793;BME280;8513;42.662;23.350;2024-01-30T05:12:21;96844.97;;;0.70;50.67
16793;BME280;8513;42.662;23.350;2024-01-30T05:14:46;96840.66;;;0.69;50.52
16793;BME280;8513;42.662;23.350;2024-01-30T05:17:12;96836.75;;;0.83;50.17
16793;BME280;8513;42.662;23.350;2024-01-30T05:19:38;96843.50;;;0.89;49.94
16793;BME280;8513;42.662;23.350;2024-01-30T05:22:04;96843.63;;;0.56;49.85
16793;BME280;8513;42.662;23.350;2024-01-30T05:24:29;96848.00;;;0.54;50.34
16793;BME280;8513;42.662;23.350;2024-01-30T05:26:54;96844.81;;;0.46;50.47
16793;BME280;8513;42.662;23.350;2024-01-30T05:29:20;96855.94;;;0.78;49.70
16793;BME280;8513;42.662;23.350;2024-01-30T05:31:45;96850.16;;;0.70;49.19
16793;BME280;8513;42.662;23.350;2024-01-30T05:34:11;96853.25;;;0.81;48.94
16793;BME280;8513;42.662;23.350;2024-01-30T05:36:36;96858.25;;;0.85;48.76
16793;BME280;8513;42.662;23.350;2024-01-30T05:39:02;96848.84;;;0.55;48.87
16793;BME280;8513;42.662;23.350;2024-01-30T05:41:27;96848.03;;;0.53;48.73
16793;BME280;8513;42.662;23.350;2024-01-30T05:43:53;96854.75;;;0.60;48.65
16793;BME280;8513;42.662;23.350;2024-01-30T05:46:18;96852.09;;;0.61;48.48
16793;BME280;8513;42.662;23.350;2024-01-30T05:48:44;96855.44;;;0.65;48.93
16793;BME280;8513;42.662;23.350;2024-01-30T05:51:09;96854.19;;;0.78;48.84
16793;BME280;8513;42.662;23.350;2024-01-30T05:53:35;96848.31;;;0.72;49.27
16793;BME280;8513;42.662;23.350;2024-01-30T05:56:03;96850.78;;;0.76;49.06
16793;BME280;8513;42.662;23.350;2024-01-30T05:58:29;96850.91;;;0.72;48.58
16793;BME280;8513;42.662;23.350;2024-01-30T06:00:54;96846.91;;;0.61;48.76
16793;BME280;8513;42.662;23.350;2024-01-30T06:03:20;96848.28;;;0.73;48.73
16793;BME280;8513;42.662;23.350;2024-01-30T06:05:45;96850.19;;;0.68;49.09
16793;BME280;8513;42.662;23.350;2024-01-30T06:08:11;96853.69;;;0.65;48.96
16793;BME280;8513;42.662;23.350;2024-01-30T06:10:37;96855.66;;;0.59;49.21
16793;BME280;8513;42.662;23.350;2024-01-30T06:13:02;96857.22;;;0.63;48.93
16793;BME280;8513;42.662;23.350;2024-01-30T06:15:27;96860.63;;;0.65;49.00
16793;BME280;8513;42.662;23.350;2024-01-30T06:17:55;96849.16;;;0.72;49.04
16793;BME280;8513;42.662;23.350;2024-01-30T06:20:20;96856.69;;;0.81;48.96
16793;BME280;8513;42.662;23.350;2024-01-30T06:22:46;96861.25;;;0.73;49.32
16793;BME280;8513;42.662;23.350;2024-01-30T06:25:11;96871.84;;;0.64;49.28
16793;BME280;8513;42.662;23.350;2024-01-30T06:27:37;96867.72;;;0.58;48.93
16793;BME280;8513;42.662;23.350;2024-01-30T06:30:03;96859.38;;;0.78;48.92
16793;BME280;8513;42.662;23.350;2024-01-30T06:32:29;96866.22;;;0.79;49.17
16793;BME280;8513;42.662;23.350;2024-01-30T06:34:59;96864.88;;;0.68;49.13
16793;BME280;8513;42.662;23.350;2024-01-30T06:37:25;96864.81;;;0.69;49.27
16793;BME280;8513;42.662;23.350;2024-01-30T06:39:50;96860.56;;;0.66;49.49
16793;BME280;8513;42.662;23.350;2024-01-30T06:42:17;96870.50;;;0.52;49.59
16793;BME280;8513;42.662;23.350;2024-01-30T06:44:42;96867.25;;;0.46;50.21
16793;BME280;8513;42.662;23.350;2024-01-30T06:47:08;96870.19;;;0.63;49.66
16793;BME280;8513;42.662;23.350;2024-01-30T06:49:33;96866.97;;;0.55;49.88
16793;BME280;8513;42.662;23.350;2024-01-30T06:51:58;96859.41;;;0.49;49.67
16793;BME280;8513;42.662;23.350;2024-01-30T06:54:24;96867.94;;;0.80;49.22
16793;BME280;8513;42.662;23.350;2024-01-30T06:56:49;96867.00;;;0.83;48.22
16793;BME280;8513;42.662;23.350;2024-01-30T06:59:15;96869.88;;;1.02;47.51
16793;BME280;8513;42.662;23.350;2024-01-30T07:01:41;96876.63;;;1.06;46.63
16793;BME280;8513;42.662;23.350;2024-01-30T07:04:06;96873.56;;;1.21;45.51
16793;BME280;8513;42.662;23.350;2024-01-30T07:06:32;96874.41;;;1.22;45.34
16793;BME280;8513;42.662;23.350;2024-01-30T07:08:57;96877.72;;;1.25;45.67
16793;BME280;8513;42.662;23.350;2024-01-30T07:11:22;96873.84;;;1.39;45.28
16793;BME280;8513;42.662;23.350;2024-01-30T07:13:50;96872.66;;;1.49;44.58
16793;BME280;8513;42.662;23.350;2024-01-30T07:16:15;96864.06;;;1.47;44.57
16793;BME280;8513;42.662;23.350;2024-01-30T07:18:41;96868.72;;;1.64;44.21
16793;BME280;8513;42.662;23.350;2024-01-30T07:21:06;96868.22;;;1.77;44.03
16793;BME280;8513;42.662;23.350;2024-01-30T07:23:32;96865.16;;;1.66;43.88
16793;BME280;8513;42.662;23.350;2024-01-30T07:25:59;96871.81;;;1.73;43.09
16793;BME280;8513;42.662;23.350;2024-01-30T07:28:24;96868.53;;;1.93;42.90
16793;BME280;8513;42.662;23.350;2024-01-30T07:30:50;96859.44;;;1.82;42.67
16793;BME280;8513;42.662;23.350;2024-01-30T07:33:15;96874.84;;;1.86;42.42
16793;BME280;8513;42.662;23.350;2024-01-30T07:35:41;96864.44;;;1.88;41.97
16793;BME280;8513;42.662;23.350;2024-01-30T07:38:06;96869.28;;;1.97;41.71
16793;BME280;8513;42.662;23.350;2024-01-30T07:40:32;96864.34;;;2.14;41.07
16793;BME280;8513;42.662;23.350;2024-01-30T07:42:58;96856.38;;;2.19;41.20
16793;BME280;8513;42.662;23.350;2024-01-30T07:45:24;96864.91;;;2.23;40.90
16793;BME280;8513;42.662;23.350;2024-01-30T07:47:51;96861.56;;;2.19;40.86
16793;BME280;8513;42.662;23.350;2024-01-30T07:50:16;96866.69;;;2.22;40.77
16793;BME280;8513;42.662;23.350;2024-01-30T07:52:43;96858.69;;;2.27;40.70
16793;BME280;8513;42.662;23.350;2024-01-30T07:55:09;96853.63;;;2.24;40.48
16793;BME280;8513;42.662;23.350;2024-01-30T07:57:34;96866.31;;;2.08;41.25
16793;BME280;8513;42.662;23.350;2024-01-30T08:00:00;96870.59;;;2.32;40.71
16793;BME280;8513;42.662;23.350;2024-01-30T08:02:26;96865.13;;;2.40;40.87
16793;BME280;8513;42.662;23.350;2024-01-30T08:04:51;96860.00;;;2.62;40.03
16793;BME280;8513;42.662;23.350;2024-01-30T08:07:17;96856.19;;;2.49;40.12
16793;BME280;8513;42.662;23.350;2024-01-30T08:09:47;96854.75;;;2.40;40.36
16793;BME280;8513;42.662;23.350;2024-01-30T08:12:12;96855.34;;;2.25;40.82
16793;BME280;8513;42.662;23.350;2024-01-30T08:14:38;96859.53;;;2.27;40.74
16793;BME280;8513;42.662;23.350;2024-01-30T08:17:05;96856.19;;;2.49;40.25
16793;BME280;8513;42.662;23.350;2024-01-30T08:19:30;96862.09;;;2.29;40.87
16793;BME280;8513;42.662;23.350;2024-01-30T08:21:55;96854.63;;;2.43;40.43
16793;BME280;8513;42.662;23.350;2024-01-30T08:24:21;96855.97;;;2.53;39.54
16793;BME280;8513;42.662;23.350;2024-01-30T08:26:46;96860.47;;;2.50;40.16
16793;BME280;8513;42.662;23.350;2024-01-30T08:29:12;96854.72;;;2.63;39.74
16793;BME280;8513;42.662;23.350;2024-01-30T08:31:37;96861.84;;;2.58;39.96
16793;BME280;8513;42.662;23.350;2024-01-30T08:34:03;96860.88;;;2.61;39.56
16793;BME280;8513;42.662;23.350;2024-01-30T08:36:28;96860.97;;;2.59;39.79
16793;BME280;8513;42.662;23.350;2024-01-30T08:38:53;96870.75;;;2.51;39.61
16793;BME280;8513;42.662;23.350;2024-01-30T08:41:19;96861.69;;;2.63;39.51
16793;BME280;8513;42.662;23.350;2024-01-30T08:43:45;96854.44;;;2.71;39.36
16793;BME280;8513;42.662;23.350;2024-01-30T08:46:11;96872.25;;;2.80;39.66
16793;BME280;8513;42.662;23.350;2024-01-30T08:48:36;96865.22;;;2.84;39.77
16793;BME280;8513;42.662;23.350;2024-01-30T08:51:02;96872.97;;;3.07;39.09
16793;BME280;8513;42.662;23.350;2024-01-30T08:53:27;96882.31;;;3.12;38.69
16793;BME280;8513;42.662;23.350;2024-01-30T08:55:52;96874.06;;;3.24;38.54
16793;BME280;8513;42.662;23.350;2024-01-30T08:58:18;96881.47;;;3.33;38.86
16793;BME280;8513;42.662;23.350;2024-01-30T09:00:44;96878.69;;;3.38;38.66
16793;BME280;8513;42.662;23.350;2024-01-30T09:03:09;96880.25;;;3.42;38.65
16793;BME280;8513;42.662;23.350;2024-01-30T09:05:35;96879.94;;;3.49;38.40
16793;BME280;8513;42.662;23.350;2024-01-30T09:08:00;96875.13;;;3.61;38.31
16793;BME280;8513;42.662;23.350;2024-01-30T09:10:26;96871.31;;;3.90;37.92
16793;BME280;8513;42.662;23.350;2024-01-30T09:12:52;96874.19;;;4.04;37.04
16793;BME280;8513;42.662;23.350;2024-01-30T09:15:17;96872.94;;;3.92;37.34
16793;BME280;8513;42.662;23.350;2024-01-30T09:17:44;96874.38;;;3.79;37.71
16793;BME280;8513;42.662;23.350;2024-01-30T09:20:10;96869.34;;;3.95;37.53
16793;BME280;8513;42.662;23.350;2024-01-30T09:22:35;96866.31;;;3.85;37.19
16793;BME280;8513;42.662;23.350;2024-01-30T09:25:01;96852.72;;;3.79;37.63
16793;BME280;8513;42.662;23.350;2024-01-30T09:27:26;96855.09;;;3.63;37.82
16793;BME280;8513;42.662;23.350;2024-01-30T09:29:51;96862.13;;;3.81;37.83
16793;BME280;8513;42.662;23.350;2024-01-30T09:32:18;96843.44;;;4.12;37.71
16793;BME280;8513;42.662;23.350;2024-01-30T09:34:43;96850.44;;;4.31;36.81
16793;BME280;8513;42.662;23.350;2024-01-30T09:37:09;96854.91;;;4.08;37.35
16793;BME280;8513;42.662;23.350;2024-01-30T09:39:34;96858.00;;;4.16;36.93
16793;BME280;8513;42.662;23.350;2024-01-30T09:42:35;96845.81;;;4.17;37.08
16793;BME280;8513;42.662;23.350;2024-01-30T09:45:05;96837.59;;;4.47;37.21
16793;BME280;8513;42.662;23.350;2024-01-30T09:47:41;96846.44;;;4.03;38.41
16793;BME280;8513;42.662;23.350;2024-01-30T09:50:10;96838.34;;;4.49;37.96
16793;BME280;8513;42.662;23.350;2024-01-30T09:52:36;96846.91;;;4.13;38.84
16793;BME280;8513;42.662;23.350;2024-01-30T09:55:03;96845.06;;;4.15;38.98
16793;BME280;8513;42.662;23.350;2024-01-30T09:57:28;96852.09;;;4.13;38.62
16793;BME280;8513;42.662;23.350;2024-01-30T09:59:54;96840.13;;;3.47;39.76
16793;BME280;8513;42.662;23.350;2024-01-30T10:02:20;96854.59;;;3.54;40.11
16793;BME280;8513;42.662;23.350;2024-01-30T10:04:50;96841.19;;;3.84;40.81
16793;BME280;8513;42.662;23.350;2024-01-30T10:07:19;96833.66;;;3.78;40.87
16793;BME280;8513;42.662;23.350;2024-01-30T10:09:45;96832.66;;;4.01;40.11
16793;BME280;8513;42.662;23.350;2024-01-30T10:12:12;96829.22;;;4.19;39.09
16793;BME280;8513;42.662;23.350;2024-01-30T10:14:38;96828.34;;;4.39;38.46
16793;BME280;8513;42.662;23.350;2024-01-30T10:17:04;96823.53;;;4.30;38.86
16793;BME280;8513;42.662;23.350;2024-01-30T10:19:31;96840.81;;;4.71;38.14
16793;BME280;8513;42.662;23.350;2024-01-30T10:21:56;96828.63;;;4.71;38.26
16793;BME280;8513;42.662;23.350;2024-01-30T10:24:25;96833.81;;;4.90;37.70
16793;BME280;8513;42.662;23.350;2024-01-30T10:26:51;96819.88;;;4.91;37.91
16793;BME280;8513;42.662;23.350;2024-01-30T10:29:17;96833.75;;;5.28;37.09
16793;BME280;8513;42.662;23.350;2024-01-30T10:31:42;96825.69;;;5.33;36.32
16793;BME280;8513;42.662;23.350;2024-01-30T10:34:08;96825.25;;;5.42;36.49
16793;BME280;8513;42.662;23.350;2024-01-30T10:36:40;96825.69;;;5.50;36.09
16793;BME280;8513;42.662;23.350;2024-01-30T10:39:08;96826.31;;;5.72;35.90
16793;BME280;8513;42.662;23.350;2024-01-30T10:41:43;96820.94;;;5.41;36.12
16793;BME280;8513;42.662;23.350;2024-01-30T10:44:10;96830.84;;;5.51;36.67
16793;BME280;8513;42.662;23.350;2024-01-30T10:46:38;96826.31;;;5.55;36.42
16793;BME280;8513;42.662;23.350;2024-01-30T10:49:04;96812.97;;;5.44;36.18
16793;BME280;8513;42.662;23.350;2024-01-30T10:51:31;96815.28;;;5.33;36.43
16793;BME280;8513;42.662;23.350;2024-01-30T10:53:56;96818.50;;;5.38;36.37
16793;BME280;8513;42.662;23.350;2024-01-30T10:56:23;96813.72;;;5.28;36.41
16793;BME280;8513;42.662;23.350;2024-01-30T10:58:52;96811.47;;;5.03;36.72
16793;BME280;8513;42.662;23.350;2024-01-30T11:01:22;96807.72;;;5.09;36.68
16793;BME280;8513;42.662;23.350;2024-01-30T11:03:50;96806.63;;;5.13;36.00
16793;BME280;8513;42.662;23.350;2024-01-30T11:06:16;96797.75;;;4.81;37.38
16793;BME280;8513;42.662;23.350;2024-01-30T11:08:44;96790.56;;;4.50;37.69
16793;BME280;8513;42.662;23.350;2024-01-30T11:11:10;96796.25;;;4.58;37.61
16793;BME280;8513;42.662;23.350;2024-01-30T11:13:36;96790.88;;;4.61;37.39
16793;BME280;8513;42.662;23.350;2024-01-30T11:16:02;96798.16;;;4.73;37.50
16793;BME280;8513;42.662;23.350;2024-01-30T11:18:33;96795.72;;;4.88;37.33
16793;BME280;8513;42.662;23.350;2024-01-30T11:20:59;96787.31;;;4.45;38.33
16793;BME280;8513;42.662;23.350;2024-01-30T11:23:30;96793.91;;;4.71;38.01
16793;BME280;8513;42.662;23.350;2024-01-30T11:25:56;96794.78;;;4.89;37.25
16793;BME280;8513;42.662;23.350;2024-01-30T11:28:22;96787.56;;;4.76;37.72
16793;BME280;8513;42.662;23.350;2024-01-30T11:30:48;96787.44;;;4.97;37.66
16793;BME280;8513;42.662;23.350;2024-01-30T11:33:27;96795.25;;;4.97;37.51
16793;BME280;8513;42.662;23.350;2024-01-30T11:35:53;96796.59;;;4.69;37.95
16793;BME280;8513;42.662;23.350;2024-01-30T11:38:18;96798.53;;;4.83;37.36
16793;BME280;8513;42.662;23.350;2024-01-30T11:40:44;96785.28;;;4.88;37.29
16793;BME280;8513;42.662;23.350;2024-01-30T11:43:10;96784.19;;;4.74;37.14
16793;BME280;8513;42.662;23.350;2024-01-30T11:45:36;96791.59;;;4.27;38.26
16793;BME280;8513;42.662;23.350;2024-01-30T11:48:03;96782.16;;;4.24;38.68
16793;BME280;8513;42.662;23.350;2024-01-30T11:50:32;96782.66;;;4.13;38.46
16793;BME280;8513;42.662;23.350;2024-01-30T11:53:01;96793.34;;;4.26;38.53
16793;BME280;8513;42.662;23.350;2024-01-30T11:55:29;96780.13;;;4.50;37.92
16793;BME280;8513;42.662;23.350;2024-01-30T11:57:58;96783.97;;;4.79;37.58
16793;BME280;8513;42.662;23.350;2024-01-30T12:00:24;96767.50;;;4.40;37.72
16793;BME280;8513;42.662;23.350;2024-01-30T12:02:54;96763.00;;;4.63;37.66
16793;BME280;8513;42.662;23.350;2024-01-30T12:05:23;96759.44;;;4.83;37.13
16793;BME280;8513;42.662;23.350;2024-01-30T12:07:48;96755.22;;;4.80;37.59
16793;BME280;8513;42.662;23.350;2024-01-30T12:10:14;96751.63;;;4.83;37.38
16793;BME280;8513;42.662;23.350;2024-01-30T12:12:46;96736.19;;;4.78;37.69
16793;BME280;8513;42.662;23.350;2024-01-30T12:15:12;96755.03;;;5.20;37.36
16793;BME280;8513;42.662;23.350;2024-01-30T12:17:38;96743.97;;;5.49;36.51
16793;BME280;8513;42.662;23.350;2024-01-30T12:25:07;96731.88;;;5.99;35.78
16793;BME280;8513;42.662;23.350;2024-01-30T12:27:34;96731.91;;;6.15;34.85
16793;BME280;8513;42.662;23.350;2024-01-30T12:29:59;96730.63;;;6.38;34.38
16793;BME280;8513;42.662;23.350;2024-01-30T12:32:25;96732.22;;;6.40;34.61
16793;BME280;8513;42.662;23.350;2024-01-30T12:34:54;96726.25;;;6.54;34.76
16793;BME280;8513;42.662;23.350;2024-01-30T12:37:20;96713.88;;;6.58;34.63
16793;BME280;8513;42.662;23.350;2024-01-30T12:39:48;96718.06;;;6.60;34.61
16793;BME280;8513;42.662;23.350;2024-01-30T12:42:14;96713.44;;;6.50;34.58
16793;BME280;8513;42.662;23.350;2024-01-30T12:44:39;96705.91;;;6.59;34.60
16793;BME280;8513;42.662;23.350;2024-01-30T12:47:05;96710.66;;;6.53;33.81
16793;BME280;8513;42.662;23.350;2024-01-30T12:49:31;96715.88;;;6.53;33.83
16793;BME280;8513;42.662;23.350;2024-01-30T12:51:56;96707.09;;;6.22;34.52
16793;BME280;8513;42.662;23.350;2024-01-30T12:54:23;96713.69;;;6.13;34.97
16793;BME280;8513;42.662;23.350;2024-01-30T12:56:49;96694.78;;;6.72;34.06
16793;BME280;8513;42.662;23.350;2024-01-30T12:59:14;96715.72;;;6.56;34.21
16793;BME280;8513;42.662;23.350;2024-01-30T13:01:39;96698.31;;;6.71;34.40
16793;BME280;8513;42.662;23.350;2024-01-30T13:04:05;96701.88;;;6.70;34.05
16793;BME280;8513;42.662;23.350;2024-01-30T13:06:30;96698.78;;;6.47;34.27
16793;BME280;8513;42.662;23.350;2024-01-30T13:08:56;96702.88;;;6.67;33.50